Terminal Aerodrome Forecast
Issued by NWS

Home | Current Version | Previous Version | Text Only | Print | Product List | Glossary On
Versions: 1 2 3 4 5 6 7 8 9 10 11 12 13 14 15 16 17 18 19 20 21 22 23 24 25 26 27 28 29 30 31 32 33 34 35
000
FTUS41 KOKX 081120
TAFTEB
TAF
KTEB 081120Z 0812/0912 VRB04KT P6SM BKN150
     FM081400 27009KT P6SM BKN120
     FM081800 28013G21KT P6SM SCT040
     FM082300 28011G18KT P6SM SCT030=

USA.gov is the U.S. government's official web portal to all federal, state and local government web resources and services.